sensor_id;sensor_type;location;lat;lon;timestamp;temperature;humidity
14057;DHT22;7103;54.300;10.180;2023-08-31T00:01:03;15.20;1.00
14057;DHT22;7103;54.300;10.180;2023-08-31T00:03:31;15.10;1.00
14057;DHT22;7103;54.300;10.180;2023-08-31T00:06:01;15.00;1.00
14057;DHT22;7103;54.300;10.180;2023-08-31T00:08:28;15.10;1.00
14057;DHT22;7103;54.300;10.180;2023-08-31T00:10:59;15.10;1.00
14057;DHT22;7103;54.300;10.180;2023-08-31T00:13:27;15.20;1.00
14057;DHT22;7103;54.300;10.180;2023-08-31T00:15:57;15.10;1.00
14057;DHT22;7103;54.300;10.180;2023-08-31T00:18:25;15.00;1.00
14057;DHT22;7103;54.300;10.180;2023-08-31T00:20:52;15.00;1.00
14057;DHT22;7103;54.300;10.180;2023-08-31T00:23:20;15.00;1.00
14057;DHT22;7103;54.300;10.180;2023-08-31T00:25:47;15.00;1.00
14057;DHT22;7103;54.300;10.180;2023-08-31T00:28:15;15.00;1.00
14057;DHT22;7103;54.300;10.180;2023-08-31T00:30:45;15.00;1.00
14057;DHT22;7103;54.300;10.180;2023-08-31T00:33:14;15.00;1.00
14057;DHT22;7103;54.300;10.180;2023-08-31T00:35:41;15.00;1.00
14057;DHT22;7103;54.300;10.180;2023-08-31T00:38:13;15.00;1.00
14057;DHT22;7103;54.300;10.180;2023-08-31T00:40:44;15.00;1.00
14057;DHT22;7103;54.300;10.180;2023-08-31T00:43:15;14.90;1.00
14057;DHT22;7103;54.300;10.180;2023-08-31T00:45:43;14.90;1.00
14057;DHT22;7103;54.300;10.180;2023-08-31T00:48:11;14.90;1.00
14057;DHT22;7103;54.300;10.180;2023-08-31T00:50:41;14.80;1.00
14057;DHT22;7103;54.300;10.180;2023-08-31T00:53:08;14.80;1.00
14057;DHT22;7103;54.300;10.180;2023-08-31T00:55:36;14.80;1.00
14057;DHT22;7103;54.300;10.180;2023-08-31T00:58:03;14.70;1.00
14057;DHT22;7103;54.300;10.180;2023-08-31T01:12:02;14.60;29.20
14057;DHT22;7103;54.300;10.180;2023-08-31T01:14:36;14.60;42.00
14057;DHT22;7103;54.300;10.180;2023-08-31T01:17:07;14.70;40.60
14057;DHT22;7103;54.300;10.180;2023-08-31T01:19:50;14.70;57.20
14057;DHT22;7103;54.300;10.180;2023-08-31T01:24:55;14.70;53.70
14057;DHT22;7103;54.300;10.180;2023-08-31T01:27:22;14.60;57.70
14057;DHT22;7103;54.300;10.180;2023-08-31T01:29:49;14.70;66.00
14057;DHT22;7103;54.300;10.180;2023-08-31T01:32:17;14.60;67.10
14057;DHT22;7103;54.300;10.180;2023-08-31T01:34:43;14.60;82.40
14057;DHT22;7103;54.300;10.180;2023-08-31T01:37:18;14.60;96.70
14057;DHT22;7103;54.300;10.180;2023-08-31T01:39:53;14.60;98.10
14057;DHT22;7103;54.300;10.180;2023-08-31T01:42:22;14.60;99.90
14057;DHT22;7103;54.300;10.180;2023-08-31T01:44:50;14.60;99.90
14057;DHT22;7103;54.300;10.180;2023-08-31T01:47:18;14.60;99.90
14057;DHT22;7103;54.300;10.180;2023-08-31T01:49:46;14.60;99.90
14057;DHT22;7103;54.300;10.180;2023-08-31T01:52:12;14.60;99.90
14057;DHT22;7103;54.300;10.180;2023-08-31T01:54:39;14.60;99.90
14057;DHT22;7103;54.300;10.180;2023-08-31T01:57:06;14.60;99.90
14057;DHT22;7103;54.300;10.180;2023-08-31T01:59:34;14.50;99.90
14057;DHT22;7103;54.300;10.180;2023-08-31T02:02:02;14.50;99.90
14057;DHT22;7103;54.300;10.180;2023-08-31T02:04:29;14.50;99.90
14057;DHT22;7103;54.300;10.180;2023-08-31T02:06:56;14.50;99.90
14057;DHT22;7103;54.300;10.180;2023-08-31T02:09:23;14.50;99.90
14057;DHT22;7103;54.300;10.180;2023-08-31T02:11:50;14.50;99.90
14057;DHT22;7103;54.300;10.180;2023-08-31T02:14:17;14.50;99.90
14057;DHT22;7103;54.300;10.180;2023-08-31T02:16:44;14.50;99.90
14057;DHT22;7103;54.300;10.180;2023-08-31T02:19:11;14.40;99.90
14057;DHT22;7103;54.300;10.180;2023-08-31T02:21:38;14.40;99.90
14057;DHT22;7103;54.300;10.180;2023-08-31T02:24:05;14.40;99.90
14057;DHT22;7103;54.300;10.180;2023-08-31T02:26:35;14.30;99.90
14057;DHT22;7103;54.300;10.180;2023-08-31T02:29:04;14.30;99.90
14057;DHT22;7103;54.300;10.180;2023-08-31T02:31:31;14.30;99.90
14057;DHT22;7103;54.300;10.180;2023-08-31T02:33:58;14.30;99.90
14057;DHT22;7103;54.300;10.180;2023-08-31T02:36:25;14.40;99.90
14057;DHT22;7103;54.300;10.180;2023-08-31T02:38:52;14.40;99.90
14057;DHT22;7103;54.300;10.180;2023-08-31T02:41:19;14.40;99.90
14057;DHT22;7103;54.300;10.180;2023-08-31T02:43:46;14.40;99.90
14057;DHT22;7103;54.300;10.180;2023-08-31T02:46:13;14.20;99.90
14057;DHT22;7103;54.300;10.180;2023-08-31T02:48:40;14.30;99.90
14057;DHT22;7103;54.300;10.180;2023-08-31T02:51:08;14.30;99.90
14057;DHT22;7103;54.300;10.180;2023-08-31T02:53:35;14.20;99.90
14057;DHT22;7103;54.300;10.180;2023-08-31T02:56:02;14.10;99.90
14057;DHT22;7103;54.300;10.180;2023-08-31T02:58:29;14.20;99.90
14057;DHT22;7103;54.300;10.180;2023-08-31T03:01:09;14.30;99.90
14057;DHT22;7103;54.300;10.180;2023-08-31T03:03:41;14.30;99.90
14057;DHT22;7103;54.300;10.180;2023-08-31T03:06:09;14.30;99.90
14057;DHT22;7103;54.300;10.180;2023-08-31T03:08:36;14.40;99.90
14057;DHT22;7103;54.300;10.180;2023-08-31T03:11:04;14.40;99.90
14057;DHT22;7103;54.300;10.180;2023-08-31T03:13:32;14.30;99.90
14057;DHT22;7103;54.300;10.180;2023-08-31T03:16:00;14.30;99.90
14057;DHT22;7103;54.300;10.180;2023-08-31T03:18:28;14.40;99.90
14057;DHT22;7103;54.300;10.180;2023-08-31T03:20:55;14.40;99.90
14057;DHT22;7103;54.300;10.180;2023-08-31T03:23:22;14.40;99.90
14057;DHT22;7103;54.300;10.180;2023-08-31T03:25:49;14.40;99.90
14057;DHT22;7103;54.300;10.180;2023-08-31T03:28:16;14.40;99.90
14057;DHT22;7103;54.300;10.180;2023-08-31T03:30:43;14.40;99.90
14057;DHT22;7103;54.300;10.180;2023-08-31T03:33:12;14.30;99.90
14057;DHT22;7103;54.300;10.180;2023-08-31T03:35:39;14.30;99.90
14057;DHT22;7103;54.300;10.180;2023-08-31T03:38:06;14.30;99.90
14057;DHT22;7103;54.300;10.180;2023-08-31T03:40:33;14.30;99.90
14057;DHT22;7103;54.300;10.180;2023-08-31T03:43:00;14.30;99.90
14057;DHT22;7103;54.300;10.180;2023-08-31T03:45:27;14.30;99.90
14057;DHT22;7103;54.300;10.180;2023-08-31T03:47:54;14.30;99.90
14057;DHT22;7103;54.300;10.180;2023-08-31T03:50:21;14.40;99.90
14057;DHT22;7103;54.300;10.180;2023-08-31T03:52:48;14.20;99.90
14057;DHT22;7103;54.300;10.180;2023-08-31T03:55:15;14.20;99.90
14057;DHT22;7103;54.300;10.180;2023-08-31T03:57:43;14.20;99.90
14057;DHT22;7103;54.300;10.180;2023-08-31T04:00:10;14.20;99.90
14057;DHT22;7103;54.300;10.180;2023-08-31T04:02:41;14.30;99.90
14057;DHT22;7103;54.300;10.180;2023-08-31T04:05:08;14.30;99.90
14057;DHT22;7103;54.300;10.180;2023-08-31T04:07:35;14.20;99.90
14057;DHT22;7103;54.300;10.180;2023-08-31T04:10:03;14.20;99.90
14057;DHT22;7103;54.300;10.180;2023-08-31T04:12:30;14.20;99.90
14057;DHT22;7103;54.300;10.180;2023-08-31T04:14:57;14.30;99.90
14057;DHT22;7103;54.300;10.180;2023-08-31T04:17:24;14.20;99.90
14057;DHT22;7103;54.300;10.180;2023-08-31T04:19:51;14.10;99.90
14057;DHT22;7103;54.300;10.180;2023-08-31T04:22:18;14.10;99.90
14057;DHT22;7103;54.300;10.180;2023-08-31T04:24:45;14.10;99.90
14057;DHT22;7103;54.300;10.180;2023-08-31T04:27:12;14.10;99.90
14057;DHT22;7103;54.300;10.180;2023-08-31T04:29:39;14.00;99.90
14057;DHT22;7103;54.300;10.180;2023-08-31T04:32:06;14.00;99.90
14057;DHT22;7103;54.300;10.180;2023-08-31T04:34:33;14.00;99.90
14057;DHT22;7103;54.300;10.180;2023-08-31T04:37:00;13.90;99.90
14057;DHT22;7103;54.300;10.180;2023-08-31T04:39:27;13.90;99.90
14057;DHT22;7103;54.300;10.180;2023-08-31T04:41:54;13.90;99.90
14057;DHT22;7103;54.300;10.180;2023-08-31T04:44:21;13.90;99.90
14057;DHT22;7103;54.300;10.180;2023-08-31T04:46:49;13.90;99.90
14057;DHT22;7103;54.300;10.180;2023-08-31T04:49:16;13.90;99.90
14057;DHT22;7103;54.300;10.180;2023-08-31T04:51:44;13.80;99.90
14057;DHT22;7103;54.300;10.180;2023-08-31T04:54:11;13.90;99.90
14057;DHT22;7103;54.300;10.180;2023-08-31T04:56:40;13.80;99.90
14057;DHT22;7103;54.300;10.180;2023-08-31T04:59:07;13.80;99.90
14057;DHT22;7103;54.300;10.180;2023-08-31T05:01:34;13.90;99.90
14057;DHT22;7103;54.300;10.180;2023-08-31T05:04:02;13.80;99.90
14057;DHT22;7103;54.300;10.180;2023-08-31T05:06:29;13.90;99.90
14057;DHT22;7103;54.300;10.180;2023-08-31T05:08:56;13.90;99.90
14057;DHT22;7103;54.300;10.180;2023-08-31T05:11:23;13.90;99.90
14057;DHT22;7103;54.300;10.180;2023-08-31T05:13:53;13.80;99.90
14057;DHT22;7103;54.300;10.180;2023-08-31T05:16:20;13.80;99.90
14057;DHT22;7103;54.300;10.180;2023-08-31T05:18:48;13.90;99.90
14057;DHT22;7103;54.300;10.180;2023-08-31T05:21:15;13.90;99.90
14057;DHT22;7103;54.300;10.180;2023-08-31T05:23:42;13.80;99.90
14057;DHT22;7103;54.300;10.180;2023-08-31T05:26:09;13.80;99.90
14057;DHT22;7103;54.300;10.180;2023-08-31T05:28:37;13.80;98.60
14057;DHT22;7103;54.300;10.180;2023-08-31T05:31:04;13.80;97.30
14057;DHT22;7103;54.300;10.180;2023-08-31T05:33:32;13.80;89.80
14057;DHT22;7103;54.300;10.180;2023-08-31T05:36:01;13.70;81.60
14057;DHT22;7103;54.300;10.180;2023-08-31T05:38:30;13.70;81.60
14057;DHT22;7103;54.300;10.180;2023-08-31T05:41:07;13.70;81.60
14057;DHT22;7103;54.300;10.180;2023-08-31T05:43:38;13.70;90.20
14057;DHT22;7103;54.300;10.180;2023-08-31T05:46:07;13.70;81.70
14057;DHT22;7103;54.300;10.180;2023-08-31T05:48:35;13.60;81.60
14057;DHT22;7103;54.300;10.180;2023-08-31T05:51:05;13.60;93.70
14057;DHT22;7103;54.300;10.180;2023-08-31T05:53:32;13.60;97.20
14057;DHT22;7103;54.300;10.180;2023-08-31T05:56:00;13.60;93.30
14057;DHT22;7103;54.300;10.180;2023-08-31T05:58:32;13.70;96.60
14057;DHT22;7103;54.300;10.180;2023-08-31T06:01:01;13.70;90.50
14057;DHT22;7103;54.300;10.180;2023-08-31T06:03:28;13.70;93.70
14057;DHT22;7103;54.300;10.180;2023-08-31T06:05:56;13.70;92.30
14057;DHT22;7103;54.300;10.180;2023-08-31T06:08:24;13.70;94.40
14057;DHT22;7103;54.300;10.180;2023-08-31T06:10:51;13.70;99.80
14057;DHT22;7103;54.300;10.180;2023-08-31T06:13:18;13.70;99.90
14057;DHT22;7103;54.300;10.180;2023-08-31T06:15:45;13.80;99.90
14057;DHT22;7103;54.300;10.180;2023-08-31T06:18:12;13.80;96.10
14057;DHT22;7103;54.300;10.180;2023-08-31T06:20:39;13.80;93.60
14057;DHT22;7103;54.300;10.180;2023-08-31T06:23:06;13.90;94.90
14057;DHT22;7103;54.300;10.180;2023-08-31T06:25:34;14.10;93.40
14057;DHT22;7103;54.300;10.180;2023-08-31T06:28:01;14.00;81.90
14057;DHT22;7103;54.300;10.180;2023-08-31T06:30:28;14.20;82.10
14057;DHT22;7103;54.300;10.180;2023-08-31T06:32:57;14.10;44.90
14057;DHT22;7103;54.300;10.180;2023-08-31T06:35:24;14.10;24.20
14057;DHT22;7103;54.300;10.180;2023-08-31T06:37:51;14.10;24.10
14057;DHT22;7103;54.300;10.180;2023-08-31T06:40:18;14.20;25.70
14057;DHT22;7103;54.300;10.180;2023-08-31T06:42:45;14.30;24.40
14057;DHT22;7103;54.300;10.180;2023-08-31T06:45:12;14.80;24.70
14057;DHT22;7103;54.300;10.180;2023-08-31T06:47:39;15.30;1.00
14057;DHT22;7103;54.300;10.180;2023-08-31T06:50:06;15.90;1.00
14057;DHT22;7103;54.300;10.180;2023-08-31T06:52:33;16.50;1.00
14057;DHT22;7103;54.300;10.180;2023-08-31T06:55:01;17.00;1.00
14057;DHT22;7103;54.300;10.180;2023-08-31T06:57:29;17.50;1.00
14057;DHT22;7103;54.300;10.180;2023-08-31T06:59:56;17.80;1.00
14057;DHT22;7103;54.300;10.180;2023-08-31T07:02:26;18.00;1.00
14057;DHT22;7103;54.300;10.180;2023-08-31T07:04:53;18.10;1.00
14057;DHT22;7103;54.300;10.180;2023-08-31T07:07:20;18.10;1.00
14057;DHT22;7103;54.300;10.180;2023-08-31T07:09:48;18.10;1.00
14057;DHT22;7103;54.300;10.180;2023-08-31T07:12:18;18.20;1.00
14057;DHT22;7103;54.300;10.180;2023-08-31T07:14:45;18.30;1.00
14057;DHT22;7103;54.300;10.180;2023-08-31T07:17:12;18.40;1.00
14057;DHT22;7103;54.300;10.180;2023-08-31T07:19:39;18.80;1.00
14057;DHT22;7103;54.300;10.180;2023-08-31T07:22:06;19.20;1.00
14057;DHT22;7103;54.300;10.180;2023-08-31T07:24:33;19.40;1.00
14057;DHT22;7103;54.300;10.180;2023-08-31T07:27:03;19.60;1.00
14057;DHT22;7103;54.300;10.180;2023-08-31T07:29:30;20.00;1.00
14057;DHT22;7103;54.300;10.180;2023-08-31T07:31:58;20.20;1.00
14057;DHT22;7103;54.300;10.180;2023-08-31T07:34:25;19.90;1.00
14057;DHT22;7103;54.300;10.180;2023-08-31T07:36:52;19.60;1.00
14057;DHT22;7103;54.300;10.180;2023-08-31T07:39:19;19.60;1.00
14057;DHT22;7103;54.300;10.180;2023-08-31T07:41:46;19.90;1.00
14057;DHT22;7103;54.300;10.180;2023-08-31T07:44:13;20.10;1.00
14057;DHT22;7103;54.300;10.180;2023-08-31T07:46:43;20.30;1.00
14057;DHT22;7103;54.300;10.180;2023-08-31T07:49:10;20.70;1.00
14057;DHT22;7103;54.300;10.180;2023-08-31T07:51:37;21.00;1.00
14057;DHT22;7103;54.300;10.180;2023-08-31T07:54:04;21.30;1.00
14057;DHT22;7103;54.300;10.180;2023-08-31T07:56:34;21.70;1.00
14057;DHT22;7103;54.300;10.180;2023-08-31T07:59:01;21.60;1.00
14057;DHT22;7103;54.300;10.180;2023-08-31T08:01:28;21.50;1.00
14057;DHT22;7103;54.300;10.180;2023-08-31T08:03:55;21.70;99.90
14057;DHT22;7103;54.300;10.180;2023-08-31T08:06:22;21.60;1.00
14057;DHT22;7103;54.300;10.180;2023-08-31T08:08:49;22.00;99.90
14057;DHT22;7103;54.300;10.180;2023-08-31T08:11:16;22.30;99.90
14057;DHT22;7103;54.300;10.180;2023-08-31T08:13:43;22.60;99.90
14057;DHT22;7103;54.300;10.180;2023-08-31T08:16:10;22.70;99.90
14057;DHT22;7103;54.300;10.180;2023-08-31T08:18:37;23.00;99.90
14057;DHT22;7103;54.300;10.180;2023-08-31T08:21:04;22.90;99.90
14057;DHT22;7103;54.300;10.180;2023-08-31T08:23:31;22.50;99.90
14057;DHT22;7103;54.300;10.180;2023-08-31T08:25:58;22.60;99.90
14057;DHT22;7103;54.300;10.180;2023-08-31T08:28:28;22.90;99.90
14057;DHT22;7103;54.300;10.180;2023-08-31T08:30:55;22.90;99.90
14057;DHT22;7103;54.300;10.180;2023-08-31T08:33:22;22.90;99.90
14057;DHT22;7103;54.300;10.180;2023-08-31T08:35:56;22.90;99.90
14057;DHT22;7103;54.300;10.180;2023-08-31T08:38:25;22.90;99.90
14057;DHT22;7103;54.300;10.180;2023-08-31T08:40:52;22.80;99.90
14057;DHT22;7103;54.300;10.180;2023-08-31T08:43:25;22.90;99.90
14057;DHT22;7103;54.300;10.180;2023-08-31T08:45:54;22.80;99.90
14057;DHT22;7103;54.300;10.180;2023-08-31T08:48:21;22.50;99.90
14057;DHT22;7103;54.300;10.180;2023-08-31T08:50:49;22.30;99.90
14057;DHT22;7103;54.300;10.180;2023-08-31T08:53:16;22.70;99.90
14057;DHT22;7103;54.300;10.180;2023-08-31T08:55:43;22.40;99.90
14057;DHT22;7103;54.300;10.180;2023-08-31T08:58:11;22.30;99.90
14057;DHT22;7103;54.300;10.180;2023-08-31T09:00:38;22.70;99.90
14057;DHT22;7103;54.300;10.180;2023-08-31T09:03:07;23.00;99.90
14057;DHT22;7103;54.300;10.180;2023-08-31T09:05:34;23.10;99.90
14057;DHT22;7103;54.300;10.180;2023-08-31T09:08:09;23.10;99.90
14057;DHT22;7103;54.300;10.180;2023-08-31T09:10:42;22.80;99.90
14057;DHT22;7103;54.300;10.180;2023-08-31T09:13:11;22.80;99.90
14057;DHT22;7103;54.300;10.180;2023-08-31T09:15:44;22.70;99.90
14057;DHT22;7103;54.300;10.180;2023-08-31T09:18:16;22.70;99.90
14057;DHT22;7103;54.300;10.180;2023-08-31T09:20:45;23.00;99.90
14057;DHT22;7103;54.300;10.180;2023-08-31T09:23:16;22.80;99.90
14057;DHT22;7103;54.300;10.180;2023-08-31T09:25:48;22.80;99.90
14057;DHT22;7103;54.300;10.180;2023-08-31T09:28:18;22.90;99.90
14057;DHT22;7103;54.300;10.180;2023-08-31T09:30:47;23.20;99.90
14057;DHT22;7103;54.300;10.180;2023-08-31T09:33:19;23.10;99.90
14057;DHT22;7103;54.300;10.180;2023-08-31T09:35:56;23.40;99.90
14057;DHT22;7103;54.300;10.180;2023-08-31T09:38:23;23.70;99.90
14057;DHT22;7103;54.300;10.180;2023-08-31T09:40:50;23.70;99.90
14057;DHT22;7103;54.300;10.180;2023-08-31T09:43:22;23.70;99.90
14057;DHT22;7103;54.300;10.180;2023-08-31T09:45:50;23.90;99.90
14057;DHT22;7103;54.300;10.180;2023-08-31T09:48:19;23.20;99.90
14057;DHT22;7103;54.300;10.180;2023-08-31T09:50:47;23.30;99.90
14057;DHT22;7103;54.300;10.180;2023-08-31T09:53:16;23.50;99.90
14057;DHT22;7103;54.300;10.180;2023-08-31T09:55:44;23.60;99.90
14057;DHT22;7103;54.300;10.180;2023-08-31T09:58:13;23.70;99.90
14057;DHT22;7103;54.300;10.180;2023-08-31T10:00:43;23.50;99.90
14057;DHT22;7103;54.300;10.180;2023-08-31T10:03:11;23.70;99.90
14057;DHT22;7103;54.300;10.180;2023-08-31T10:05:47;23.80;99.90
14057;DHT22;7103;54.300;10.180;2023-08-31T10:08:15;22.70;99.90
14057;DHT22;7103;54.300;10.180;2023-08-31T10:10:44;22.20;99.90
14057;DHT22;7103;54.300;10.180;2023-08-31T10:13:12;21.50;99.90
14057;DHT22;7103;54.300;10.180;2023-08-31T10:15:41;21.30;99.90
14057;DHT22;7103;54.300;10.180;2023-08-31T10:18:09;21.30;99.90
14057;DHT22;7103;54.300;10.180;2023-08-31T10:20:37;21.30;99.90
14057;DHT22;7103;54.300;10.180;2023-08-31T10:23:05;21.70;99.90
14057;DHT22;7103;54.300;10.180;2023-08-31T10:28:21;23.50;99.90
14057;DHT22;7103;54.300;10.180;2023-08-31T10:31:05;23.80;99.90
14057;DHT22;7103;54.300;10.180;2023-08-31T10:33:40;24.10;99.90
14057;DHT22;7103;54.300;10.180;2023-08-31T10:36:18;23.00;99.90
14057;DHT22;7103;54.300;10.180;2023-08-31T10:38:47;22.10;99.90
14057;DHT22;7103;54.300;10.180;2023-08-31T10:41:18;21.60;99.90
14057;DHT22;7103;54.300;10.180;2023-08-31T10:43:53;22.10;99.90
14057;DHT22;7103;54.300;10.180;2023-08-31T10:46:33;22.30;99.90
14057;DHT22;7103;54.300;10.180;2023-08-31T10:51:42;22.40;99.90
14057;DHT22;7103;54.300;10.180;2023-08-31T10:57:02;23.00;99.90
14057;DHT22;7103;54.300;10.180;2023-08-31T11:02:10;24.00;99.90
14057;DHT22;7103;54.300;10.180;2023-08-31T11:07:43;24.00;99.90
14057;DHT22;7103;54.300;10.180;2023-08-31T11:10:18;24.20;99.90
14057;DHT22;7103;54.300;10.180;2023-08-31T11:12:51;24.40;99.90
14057;DHT22;7103;54.300;10.180;2023-08-31T11:15:20;24.60;99.90
14057;DHT22;7103;54.300;10.180;2023-08-31T11:17:51;24.50;99.90
14057;DHT22;7103;54.300;10.180;2023-08-31T11:20:20;24.40;99.90
14057;DHT22;7103;54.300;10.180;2023-08-31T11:22:51;24.30;99.90
14057;DHT22;7103;54.300;10.180;2023-08-31T11:25:22;24.30;99.90
14057;DHT22;7103;54.300;10.180;2023-08-31T11:28:05;24.40;99.90
14057;DHT22;7103;54.300;10.180;2023-08-31T11:30:33;24.40;99.90
14057;DHT22;7103;54.300;10.180;2023-08-31T11:33:08;24.50;99.90
14057;DHT22;7103;54.300;10.180;2023-08-31T11:35:37;24.40;99.90
14057;DHT22;7103;54.300;10.180;2023-08-31T11:38:06;24.80;99.90
14057;DHT22;7103;54.300;10.180;2023-08-31T11:40:33;25.10;99.90
14057;DHT22;7103;54.300;10.180;2023-08-31T11:43:04;24.90;99.90
14057;DHT22;7103;54.300;10.180;2023-08-31T11:45:31;24.70;99.90
14057;DHT22;7103;54.300;10.180;2023-08-31T11:47:58;24.60;99.90
14057;DHT22;7103;54.300;10.180;2023-08-31T11:50:26;24.40;99.90
14057;DHT22;7103;54.300;10.180;2023-08-31T11:52:54;24.20;99.90
14057;DHT22;7103;54.300;10.180;2023-08-31T11:55:22;24.50;99.90
14057;DHT22;7103;54.300;10.180;2023-08-31T11:57:54;24.40;99.90
14057;DHT22;7103;54.300;10.180;2023-08-31T12:00:22;24.60;99.90
14057;DHT22;7103;54.300;10.180;2023-08-31T12:03:01;24.30;99.90
14057;DHT22;7103;54.300;10.180;2023-08-31T12:05:45;24.30;99.90
14057;DHT22;7103;54.300;10.180;2023-08-31T12:08:12;24.10;99.90
14057;DHT22;7103;54.300;10.180;2023-08-31T12:10:40;24.10;99.90
14057;DHT22;7103;54.300;10.180;2023-08-31T12:13:09;24.30;99.90
14057;DHT22;7103;54.300;10.180;2023-08-31T12:15:37;24.40;99.90
14057;DHT22;7103;54.300;10.180;2023-08-31T12:18:10;24.50;99.90
14057;DHT22;7103;54.300;10.180;2023-08-31T12:20:49;24.20;99.90
14057;DHT22;7103;54.300;10.180;2023-08-31T12:23:18;24.00;99.90
14057;DHT22;7103;54.300;10.180;2023-08-31T12:25:48;23.90;99.90
14057;DHT22;7103;54.300;10.180;2023-08-31T12:28:23;23.40;99.90
14057;DHT22;7103;54.300;10.180;2023-08-31T12:30:54;23.00;99.90
14057;DHT22;7103;54.300;10.180;2023-08-31T12:33:23;22.50;99.90
14057;DHT22;7103;54.300;10.180;2023-08-31T12:35:51;22.00;99.90
14057;DHT22;7103;54.300;10.180;2023-08-31T12:38:18;21.60;99.90
14057;DHT22;7103;54.300;10.180;2023-08-31T12:43:14;20.50;99.90
14057;DHT22;7103;54.300;10.180;2023-08-31T12:45:43;20.60;99.90
14057;DHT22;7103;54.300;10.180;2023-08-31T12:48:10;20.60;99.90
14057;DHT22;7103;54.300;10.180;2023-08-31T12:50:37;20.50;99.90
14057;DHT22;7103;54.300;10.180;2023-08-31T12:53:04;20.40;99.90
14057;DHT22;7103;54.300;10.180;2023-08-31T12:55:31;20.40;99.90
14057;DHT22;7103;54.300;10.180;2023-08-31T12:57:58;20.30;99.90
14057;DHT22;7103;54.300;10.180;2023-08-31T13:00:25;20.30;99.90
14057;DHT22;7103;54.300;10.180;2023-08-31T13:02:52;20.00;99.90
14057;DHT22;7103;54.300;10.180;2023-08-31T13:05:19;20.00;99.90
14057;DHT22;7103;54.300;10.180;2023-08-31T13:07:47;20.50;99.90
14057;DHT22;7103;54.300;10.180;2023-08-31T13:10:14;21.00;99.90
14057;DHT22;7103;54.300;10.180;2023-08-31T13:12:41;21.00;99.90
14057;DHT22;7103;54.300;10.180;2023-08-31T13:15:08;20.60;99.90
14057;DHT22;7103;54.300;10.180;2023-08-31T13:17:35;20.60;99.90
14057;DHT22;7103;54.300;10.180;2023-08-31T13:20:03;20.80;99.90
14057;DHT22;7103;54.300;10.180;2023-08-31T13:22:30;21.10;99.90
14057;DHT22;7103;54.300;10.180;2023-08-31T13:24:58;21.30;99.90
14057;DHT22;7103;54.300;10.180;2023-08-31T13:27:25;21.40;99.90
14057;DHT22;7103;54.300;10.180;2023-08-31T13:29:52;21.30;99.90
14057;DHT22;7103;54.300;10.180;2023-08-31T13:32:19;21.20;99.90
14057;DHT22;7103;54.300;10.180;2023-08-31T13:34:46;21.00;99.90
14057;DHT22;7103;54.300;10.180;2023-08-31T13:37:13;20.60;99.90
14057;DHT22;7103;54.300;10.180;2023-08-31T13:39:40;20.40;99.90
14057;DHT22;7103;54.300;10.180;2023-08-31T13:42:07;20.50;99.90
14057;DHT22;7103;54.300;10.180;2023-08-31T13:44:34;20.70;99.90
14057;DHT22;7103;54.300;10.180;2023-08-31T13:47:02;21.10;99.90
14057;DHT22;7103;54.300;10.180;2023-08-31T13:49:30;21.20;99.90
14057;DHT22;7103;54.300;10.180;2023-08-31T13:51:58;21.40;99.90
14057;DHT22;7103;54.300;10.180;2023-08-31T13:54:25;21.60;99.90
14057;DHT22;7103;54.300;10.180;2023-08-31T13:56:52;21.70;99.90
14057;DHT22;7103;54.300;10.180;2023-08-31T13:59:19;21.60;99.90
14057;DHT22;7103;54.300;10.180;2023-08-31T14:01:46;21.50;99.90
14057;DHT22;7103;54.300;10.180;2023-08-31T14:04:13;21.40;99.90
14057;DHT22;7103;54.300;10.180;2023-08-31T14:06:40;20.90;99.90
14057;DHT22;7103;54.300;10.180;2023-08-31T14:09:07;20.80;99.90
14057;DHT22;7103;54.300;10.180;2023-08-31T14:11:35;20.80;99.90
14057;DHT22;7103;54.300;10.180;2023-08-31T14:14:04;20.60;99.90
14057;DHT22;7103;54.300;10.180;2023-08-31T14:16:32;20.50;99.90
14057;DHT22;7103;54.300;10.180;2023-08-31T14:19:00;20.40;99.90
14057;DHT22;7103;54.300;10.180;2023-08-31T14:21:27;20.40;99.90
14057;DHT22;7103;54.300;10.180;2023-08-31T14:23:54;20.40;99.90
14057;DHT22;7103;54.300;10.180;2023-08-31T14:26:23;20.40;99.90
14057;DHT22;7103;54.300;10.180;2023-08-31T14:28:53;20.20;99.90
14057;DHT22;7103;54.300;10.180;2023-08-31T14:31:20;20.10;99.90
14057;DHT22;7103;54.300;10.180;2023-08-31T14:33:47;20.00;99.90
14057;DHT22;7103;54.300;10.180;2023-08-31T14:36:15;19.80;99.90
14057;DHT22;7103;54.300;10.180;2023-08-31T14:38:42;19.80;99.90
14057;DHT22;7103;54.300;10.180;2023-08-31T14:41:10;19.70;99.90
14057;DHT22;7103;54.300;10.180;2023-08-31T14:43:37;19.60;99.90
14057;DHT22;7103;54.300;10.180;2023-08-31T14:46:04;19.40;99.90
14057;DHT22;7103;54.300;10.180;2023-08-31T14:48:32;19.40;99.90
14057;DHT22;7103;54.300;10.180;2023-08-31T14:50:59;19.40;99.90
14057;DHT22;7103;54.300;10.180;2023-08-31T14:53:27;19.50;99.90
14057;DHT22;7103;54.300;10.180;2023-08-31T14:55:55;19.60;99.90
14057;DHT22;7103;54.300;10.180;2023-08-31T14:58:22;19.70;99.90
14057;DHT22;7103;54.300;10.180;2023-08-31T15:00:49;19.70;99.90
14057;DHT22;7103;54.300;10.180;2023-08-31T15:03:16;19.80;99.90
14057;DHT22;7103;54.300;10.180;2023-08-31T15:05:47;19.80;99.90
14057;DHT22;7103;54.300;10.180;2023-08-31T15:08:14;19.80;99.90
14057;DHT22;7103;54.300;10.180;2023-08-31T15:10:42;19.90;99.90
14057;DHT22;7103;54.300;10.180;2023-08-31T15:13:09;19.90;99.90
14057;DHT22;7103;54.300;10.180;2023-08-31T15:15:36;19.90;99.90
14057;DHT22;7103;54.300;10.180;2023-08-31T15:18:03;19.60;99.90
14057;DHT22;7103;54.300;10.180;2023-08-31T15:20:31;19.40;99.90
14057;DHT22;7103;54.300;10.180;2023-08-31T15:23:00;19.60;99.90
14057;DHT22;7103;54.300;10.180;2023-08-31T15:25:27;19.60;99.90
14057;DHT22;7103;54.300;10.180;2023-08-31T15:27:54;19.60;99.90
14057;DHT22;7103;54.300;10.180;2023-08-31T15:30:21;19.70;99.90
14057;DHT22;7103;54.300;10.180;2023-08-31T15:32:49;19.60;99.90
14057;DHT22;7103;54.300;10.180;2023-08-31T15:35:16;19.40;99.90
14057;DHT22;7103;54.300;10.180;2023-08-31T15:37:46;19.30;99.90
14057;DHT22;7103;54.300;10.180;2023-08-31T15:40:15;19.20;99.90
14057;DHT22;7103;54.300;10.180;2023-08-31T15:42:42;19.20;99.90
14057;DHT22;7103;54.300;10.180;2023-08-31T15:45:09;19.10;99.90
14057;DHT22;7103;54.300;10.180;2023-08-31T15:47:36;19.00;99.90
14057;DHT22;7103;54.300;10.180;2023-08-31T15:50:04;19.20;99.90
14057;DHT22;7103;54.300;10.180;2023-08-31T15:52:31;19.30;99.90
14057;DHT22;7103;54.300;10.180;2023-08-31T15:55:00;19.30;99.90
14057;DHT22;7103;54.300;10.180;2023-08-31T15:57:27;19.30;99.90
14057;DHT22;7103;54.300;10.180;2023-08-31T15:59:57;19.30;99.90
14057;DHT22;7103;54.300;10.180;2023-08-31T16:02:25;19.30;99.90
14057;DHT22;7103;54.300;10.180;2023-08-31T16:04:55;19.30;99.90
14057;DHT22;7103;54.300;10.180;2023-08-31T16:07:22;19.00;99.90
14057;DHT22;7103;54.300;10.180;2023-08-31T16:09:52;18.80;99.90